sensor_id;sensor_type;location;lat;lon;timestamp;temperature;humidity
46590;DHT22;32313;48.722;9.362;2024-02-15T00:01:00;7.90;99.90
46590;DHT22;32313;48.722;9.362;2024-02-15T00:03:27;7.90;99.90
46590;DHT22;32313;48.722;9.362;2024-02-15T00:05:53;7.80;99.90
46590;DHT22;32313;48.722;9.362;2024-02-15T00:08:18;7.90;99.90
46590;DHT22;32313;48.722;9.362;2024-02-15T00:10:46;7.90;99.90
46590;DHT22;32313;48.722;9.362;2024-02-15T00:13:13;7.90;99.90
46590;DHT22;32313;48.722;9.362;2024-02-15T00:15:39;7.90;99.90
46590;DHT22;32313;48.722;9.362;2024-02-15T00:18:05;7.90;99.90
46590;DHT22;32313;48.722;9.362;2024-02-15T00:20:30;7.90;99.90
46590;DHT22;32313;48.722;9.362;2024-02-15T00:22:56;7.80;99.90
46590;DHT22;32313;48.722;9.362;2024-02-15T00:25:22;7.90;99.90
46590;DHT22;32313;48.722;9.362;2024-02-15T00:27:48;7.90;99.90
46590;DHT22;32313;48.722;9.362;2024-02-15T00:30:14;7.80;99.90
46590;DHT22;32313;48.722;9.362;2024-02-15T00:32:42;7.80;99.90
46590;DHT22;32313;48.722;9.362;2024-02-15T00:35:07;7.80;99.90
46590;DHT22;32313;48.722;9.362;2024-02-15T00:37:35;7.80;99.90
46590;DHT22;32313;48.722;9.362;2024-02-15T00:40:01;7.80;99.90
46590;DHT22;32313;48.722;9.362;2024-02-15T00:42:30;7.80;99.90
46590;DHT22;32313;48.722;9.362;2024-02-15T00:44:59;7.80;99.90
46590;DHT22;32313;48.722;9.362;2024-02-15T00:47:24;7.80;99.90
46590;DHT22;32313;48.722;9.362;2024-02-15T00:49:50;7.80;99.90
46590;DHT22;32313;48.722;9.362;2024-02-15T00:52:16;7.80;99.90
46590;DHT22;32313;48.722;9.362;2024-02-15T00:54:46;7.80;99.90
46590;DHT22;32313;48.722;9.362;2024-02-15T00:57:12;7.80;99.90
46590;DHT22;32313;48.722;9.362;2024-02-15T00:59:38;7.80;99.90
46590;DHT22;32313;48.722;9.362;2024-02-15T01:02:04;7.70;99.90
46590;DHT22;32313;48.722;9.362;2024-02-15T01:04:31;7.70;99.90
46590;DHT22;32313;48.722;9.362;2024-02-15T01:06:56;7.60;99.90
46590;DHT22;32313;48.722;9.362;2024-02-15T01:09:22;7.50;99.90
46590;DHT22;32313;48.722;9.362;2024-02-15T01:11:48;7.50;99.90
46590;DHT22;32313;48.722;9.362;2024-02-15T01:14:14;7.40;99.90
46590;DHT22;32313;48.722;9.362;2024-02-15T01:16:41;7.40;99.90
46590;DHT22;32313;48.722;9.362;2024-02-15T01:19:07;7.30;99.90
46590;DHT22;32313;48.722;9.362;2024-02-15T01:21:33;7.30;99.90
46590;DHT22;32313;48.722;9.362;2024-02-15T01:23:59;7.30;99.90
46590;DHT22;32313;48.722;9.362;2024-02-15T01:26:26;7.20;99.90
46590;DHT22;32313;48.722;9.362;2024-02-15T01:28:52;7.20;99.90
46590;DHT22;32313;48.722;9.362;2024-02-15T01:31:18;7.30;99.90
46590;DHT22;32313;48.722;9.362;2024-02-15T01:33:44;7.20;99.90
46590;DHT22;32313;48.722;9.362;2024-02-15T01:36:20;7.10;99.90
46590;DHT22;32313;48.722;9.362;2024-02-15T01:38:45;6.90;99.90
46590;DHT22;32313;48.722;9.362;2024-02-15T01:41:11;6.90;99.90
46590;DHT22;32313;48.722;9.362;2024-02-15T01:43:37;6.80;99.90
46590;DHT22;32313;48.722;9.362;2024-02-15T01:46:07;6.70;99.90
46590;DHT22;32313;48.722;9.362;2024-02-15T01:48:35;6.70;99.90
46590;DHT22;32313;48.722;9.362;2024-02-15T01:51:02;6.60;99.90
46590;DHT22;32313;48.722;9.362;2024-02-15T01:53:29;6.60;99.90
46590;DHT22;32313;48.722;9.362;2024-02-15T01:55:56;6.60;99.90
46590;DHT22;32313;48.722;9.362;2024-02-15T01:58:25;6.50;99.90
46590;DHT22;32313;48.722;9.362;2024-02-15T02:00:51;6.40;99.90
46590;DHT22;32313;48.722;9.362;2024-02-15T02:03:20;6.30;99.90
46590;DHT22;32313;48.722;9.362;2024-02-15T02:05:46;6.20;99.90
46590;DHT22;32313;48.722;9.362;2024-02-15T02:08:12;6.20;99.90
46590;DHT22;32313;48.722;9.362;2024-02-15T02:10:38;6.10;99.90
46590;DHT22;32313;48.722;9.362;2024-02-15T02:13:04;6.10;99.90
46590;DHT22;32313;48.722;9.362;2024-02-15T02:15:34;6.10;99.90
46590;DHT22;32313;48.722;9.362;2024-02-15T02:18:03;6.10;99.90
46590;DHT22;32313;48.722;9.362;2024-02-15T02:20:35;6.00;99.90
46590;DHT22;32313;48.722;9.362;2024-02-15T02:23:13;5.80;99.90
46590;DHT22;32313;48.722;9.362;2024-02-15T02:25:39;5.70;99.90
46590;DHT22;32313;48.722;9.362;2024-02-15T02:28:06;5.50;99.90
46590;DHT22;32313;48.722;9.362;2024-02-15T02:30:32;5.40;99.90
46590;DHT22;32313;48.722;9.362;2024-02-15T02:32:58;5.30;99.90
46590;DHT22;32313;48.722;9.362;2024-02-15T02:35:25;5.30;99.90
46590;DHT22;32313;48.722;9.362;2024-02-15T02:37:51;5.20;99.90
46590;DHT22;32313;48.722;9.362;2024-02-15T02:40:19;5.10;99.90
46590;DHT22;32313;48.722;9.362;2024-02-15T02:42:54;5.00;99.90
46590;DHT22;32313;48.722;9.362;2024-02-15T02:45:25;4.90;99.90
46590;DHT22;32313;48.722;9.362;2024-02-15T02:47:51;4.80;99.90
46590;DHT22;32313;48.722;9.362;2024-02-15T02:50:18;4.80;99.90
46590;DHT22;32313;48.722;9.362;2024-02-15T02:52:44;4.80;99.90
46590;DHT22;32313;48.722;9.362;2024-02-15T02:55:10;4.70;99.90
46590;DHT22;32313;48.722;9.362;2024-02-15T02:57:37;4.60;99.90
46590;DHT22;32313;48.722;9.362;2024-02-15T03:00:07;4.60;99.90
46590;DHT22;32313;48.722;9.362;2024-02-15T03:02:37;4.50;99.90
46590;DHT22;32313;48.722;9.362;2024-02-15T03:05:04;4.50;99.90
46590;DHT22;32313;48.722;9.362;2024-02-15T03:07:33;4.50;99.90
46590;DHT22;32313;48.722;9.362;2024-02-15T03:10:00;4.40;99.90
46590;DHT22;32313;48.722;9.362;2024-02-15T03:12:25;4.30;99.90
46590;DHT22;32313;48.722;9.362;2024-02-15T03:14:52;4.20;99.90
46590;DHT22;32313;48.722;9.362;2024-02-15T03:17:18;4.10;99.90
46590;DHT22;32313;48.722;9.362;2024-02-15T03:19:43;4.10;99.90
46590;DHT22;32313;48.722;9.362;2024-02-15T03:22:09;4.00;99.90
46590;DHT22;32313;48.722;9.362;2024-02-15T03:24:36;4.00;99.90
46590;DHT22;32313;48.722;9.362;2024-02-15T03:27:02;4.00;99.90
46590;DHT22;32313;48.722;9.362;2024-02-15T03:29:28;4.00;99.90
46590;DHT22;32313;48.722;9.362;2024-02-15T03:31:54;4.00;99.90
46590;DHT22;32313;48.722;9.362;2024-02-15T03:34:21;4.00;99.90
46590;DHT22;32313;48.722;9.362;2024-02-15T03:36:47;3.90;99.90
46590;DHT22;32313;48.722;9.362;2024-02-15T03:39:19;3.80;99.90
46590;DHT22;32313;48.722;9.362;2024-02-15T03:41:45;3.80;99.90
46590;DHT22;32313;48.722;9.362;2024-02-15T03:44:12;3.80;99.90
46590;DHT22;32313;48.722;9.362;2024-02-15T03:46:38;3.70;99.90
46590;DHT22;32313;48.722;9.362;2024-02-15T03:49:03;3.70;99.90
46590;DHT22;32313;48.722;9.362;2024-02-15T03:51:29;3.60;99.90
46590;DHT22;32313;48.722;9.362;2024-02-15T03:53:55;3.60;99.90
46590;DHT22;32313;48.722;9.362;2024-02-15T03:56:20;3.50;99.90
46590;DHT22;32313;48.722;9.362;2024-02-15T03:58:47;3.50;99.90
46590;DHT22;32313;48.722;9.362;2024-02-15T04:01:12;3.50;99.90
46590;DHT22;32313;48.722;9.362;2024-02-15T04:03:40;3.50;99.90
46590;DHT22;32313;48.722;9.362;2024-02-15T04:06:06;3.50;99.90
46590;DHT22;32313;48.722;9.362;2024-02-15T04:08:32;3.40;99.90
46590;DHT22;32313;48.722;9.362;2024-02-15T04:10:59;3.30;99.90
46590;DHT22;32313;48.722;9.362;2024-02-15T04:13:25;3.30;99.90
46590;DHT22;32313;48.722;9.362;2024-02-15T04:15:50;3.30;99.90
46590;DHT22;32313;48.722;9.362;2024-02-15T04:18:19;3.30;99.90
46590;DHT22;32313;48.722;9.362;2024-02-15T04:20:44;3.30;99.90
46590;DHT22;32313;48.722;9.362;2024-02-15T04:23:12;3.20;99.90
46590;DHT22;32313;48.722;9.362;2024-02-15T04:25:38;3.20;99.90
46590;DHT22;32313;48.722;9.362;2024-02-15T04:28:04;3.20;99.90
46590;DHT22;32313;48.722;9.362;2024-02-15T04:30:30;3.30;99.90
46590;DHT22;32313;48.722;9.362;2024-02-15T04:32:57;3.30;99.90
46590;DHT22;32313;48.722;9.362;2024-02-15T04:35:22;3.30;99.90
46590;DHT22;32313;48.722;9.362;2024-02-15T04:37:50;3.30;99.90
46590;DHT22;32313;48.722;9.362;2024-02-15T04:40:17;3.40;99.90
46590;DHT22;32313;48.722;9.362;2024-02-15T04:42:43;3.50;99.90
46590;DHT22;32313;48.722;9.362;2024-02-15T04:45:12;3.60;99.90
46590;DHT22;32313;48.722;9.362;2024-02-15T04:47:41;3.60;99.90
46590;DHT22;32313;48.722;9.362;2024-02-15T04:50:07;3.70;99.90
46590;DHT22;32313;48.722;9.362;2024-02-15T04:52:34;3.70;99.90
46590;DHT22;32313;48.722;9.362;2024-02-15T04:55:01;3.80;99.90
46590;DHT22;32313;48.722;9.362;2024-02-15T04:57:30;3.80;99.90
46590;DHT22;32313;48.722;9.362;2024-02-15T04:59:56;3.90;99.90
46590;DHT22;32313;48.722;9.362;2024-02-15T05:02:21;3.90;99.90
46590;DHT22;32313;48.722;9.362;2024-02-15T05:04:50;4.00;99.90
46590;DHT22;32313;48.722;9.362;2024-02-15T05:07:21;4.00;99.90
46590;DHT22;32313;48.722;9.362;2024-02-15T05:09:48;4.10;99.90
46590;DHT22;32313;48.722;9.362;2024-02-15T05:12:22;4.10;99.90
46590;DHT22;32313;48.722;9.362;2024-02-15T05:14:50;4.10;99.90
46590;DHT22;32313;48.722;9.362;2024-02-15T05:17:16;4.10;99.90
46590;DHT22;32313;48.722;9.362;2024-02-15T05:19:42;4.10;99.90
46590;DHT22;32313;48.722;9.362;2024-02-15T05:22:07;4.10;99.90
46590;DHT22;32313;48.722;9.362;2024-02-15T05:24:33;4.20;99.90
46590;DHT22;32313;48.722;9.362;2024-02-15T05:26:59;4.30;99.90
46590;DHT22;32313;48.722;9.362;2024-02-15T05:29:25;4.30;99.90
46590;DHT22;32313;48.722;9.362;2024-02-15T05:31:51;4.40;99.90
46590;DHT22;32313;48.722;9.362;2024-02-15T05:34:17;4.40;99.90
46590;DHT22;32313;48.722;9.362;2024-02-15T05:36:43;4.50;99.90
46590;DHT22;32313;48.722;9.362;2024-02-15T05:39:09;4.50;99.90
46590;DHT22;32313;48.722;9.362;2024-02-15T05:41:37;4.50;99.90
46590;DHT22;32313;48.722;9.362;2024-02-15T05:44:03;4.60;99.90
46590;DHT22;32313;48.722;9.362;2024-02-15T05:46:31;4.60;99.90
46590;DHT22;32313;48.722;9.362;2024-02-15T05:48:57;4.60;99.90
46590;DHT22;32313;48.722;9.362;2024-02-15T05:51:24;4.70;99.90
46590;DHT22;32313;48.722;9.362;2024-02-15T05:53:50;4.60;99.90
46590;DHT22;32313;48.722;9.362;2024-02-15T05:56:16;4.70;99.90
46590;DHT22;32313;48.722;9.362;2024-02-15T05:58:42;4.60;99.90
46590;DHT22;32313;48.722;9.362;2024-02-15T06:01:08;4.60;99.90
46590;DHT22;32313;48.722;9.362;2024-02-15T06:03:38;4.60;99.90
46590;DHT22;32313;48.722;9.362;2024-02-15T06:06:06;4.60;99.90
46590;DHT22;32313;48.722;9.362;2024-02-15T06:08:35;4.60;99.90
46590;DHT22;32313;48.722;9.362;2024-02-15T06:11:01;4.60;99.90
46590;DHT22;32313;48.722;9.362;2024-02-15T06:13:27;4.60;99.90
46590;DHT22;32313;48.722;9.362;2024-02-15T06:15:54;4.60;99.90
46590;DHT22;32313;48.722;9.362;2024-02-15T06:18:24;4.60;99.90
46590;DHT22;32313;48.722;9.362;2024-02-15T06:20:51;4.60;99.90
46590;DHT22;32313;48.722;9.362;2024-02-15T06:23:18;4.60;99.90
46590;DHT22;32313;48.722;9.362;2024-02-15T06:25:46;4.60;99.90
46590;DHT22;32313;48.722;9.362;2024-02-15T06:28:16;4.60;99.90
46590;DHT22;32313;48.722;9.362;2024-02-15T06:31:07;4.60;99.90
46590;DHT22;32313;48.722;9.362;2024-02-15T06:33:52;4.60;99.90
46590;DHT22;32313;48.722;9.362;2024-02-15T06:36:56;4.70;99.90
46590;DHT22;32313;48.722;9.362;2024-02-15T06:39:40;4.60;99.90
46590;DHT22;32313;48.722;9.362;2024-02-15T06:42:13;4.60;99.90
46590;DHT22;32313;48.722;9.362;2024-02-15T06:44:47;4.50;99.90
46590;DHT22;32313;48.722;9.362;2024-02-15T06:47:14;4.50;99.90
46590;DHT22;32313;48.722;9.362;2024-02-15T06:49:43;4.40;99.90
46590;DHT22;32313;48.722;9.362;2024-02-15T06:52:10;4.40;99.90
46590;DHT22;32313;48.722;9.362;2024-02-15T06:54:40;4.30;99.90
46590;DHT22;32313;48.722;9.362;2024-02-15T06:57:07;4.30;99.90
46590;DHT22;32313;48.722;9.362;2024-02-15T06:59:33;4.20;99.90
46590;DHT22;32313;48.722;9.362;2024-02-15T07:02:00;4.20;99.90
46590;DHT22;32313;48.722;9.362;2024-02-15T07:04:26;4.30;99.90
46590;DHT22;32313;48.722;9.362;2024-02-15T07:06:52;4.30;99.90
46590;DHT22;32313;48.722;9.362;2024-02-15T07:09:23;4.40;99.90
46590;DHT22;32313;48.722;9.362;2024-02-15T07:11:50;4.40;99.90
46590;DHT22;32313;48.722;9.362;2024-02-15T07:14:16;4.50;99.90
46590;DHT22;32313;48.722;9.362;2024-02-15T07:16:49;4.50;99.90
46590;DHT22;32313;48.722;9.362;2024-02-15T07:19:15;4.50;99.90
46590;DHT22;32313;48.722;9.362;2024-02-15T07:21:41;4.60;99.90
46590;DHT22;32313;48.722;9.362;2024-02-15T07:24:07;4.60;99.90
46590;DHT22;32313;48.722;9.362;2024-02-15T07:26:33;4.70;99.90
46590;DHT22;32313;48.722;9.362;2024-02-15T07:29:00;4.80;99.90
46590;DHT22;32313;48.722;9.362;2024-02-15T07:31:29;5.00;99.90
46590;DHT22;32313;48.722;9.362;2024-02-15T07:33:56;5.30;99.90
46590;DHT22;32313;48.722;9.362;2024-02-15T07:36:22;5.60;99.90
46590;DHT22;32313;48.722;9.362;2024-02-15T07:38:49;5.80;99.90
46590;DHT22;32313;48.722;9.362;2024-02-15T07:41:19;6.10;99.90
46590;DHT22;32313;48.722;9.362;2024-02-15T07:43:51;6.40;99.90
46590;DHT22;32313;48.722;9.362;2024-02-15T07:46:21;6.70;99.90
46590;DHT22;32313;48.722;9.362;2024-02-15T07:48:47;7.10;99.90
46590;DHT22;32313;48.722;9.362;2024-02-15T07:51:14;7.30;99.90
46590;DHT22;32313;48.722;9.362;2024-02-15T07:53:41;7.60;99.90
46590;DHT22;32313;48.722;9.362;2024-02-15T07:56:09;7.80;99.90
46590;DHT22;32313;48.722;9.362;2024-02-15T07:58:41;7.90;99.90
46590;DHT22;32313;48.722;9.362;2024-02-15T08:01:07;7.80;99.90
46590;DHT22;32313;48.722;9.362;2024-02-15T08:03:35;7.70;99.90
46590;DHT22;32313;48.722;9.362;2024-02-15T08:06:02;7.70;99.90
46590;DHT22;32313;48.722;9.362;2024-02-15T08:08:35;7.80;99.90
46590;DHT22;32313;48.722;9.362;2024-02-15T08:11:04;7.90;99.90
46590;DHT22;32313;48.722;9.362;2024-02-15T08:13:30;7.90;99.90
46590;DHT22;32313;48.722;9.362;2024-02-15T08:15:56;7.90;99.90
46590;DHT22;32313;48.722;9.362;2024-02-15T08:18:21;8.00;99.90
46590;DHT22;32313;48.722;9.362;2024-02-15T08:20:47;8.20;99.90
46590;DHT22;32313;48.722;9.362;2024-02-15T08:23:13;8.40;99.90
46590;DHT22;32313;48.722;9.362;2024-02-15T08:25:39;8.60;99.90
46590;DHT22;32313;48.722;9.362;2024-02-15T08:28:07;8.70;99.90
46590;DHT22;32313;48.722;9.362;2024-02-15T08:30:33;8.90;99.90
46590;DHT22;32313;48.722;9.362;2024-02-15T08:32:59;9.10;99.90
46590;DHT22;32313;48.722;9.362;2024-02-15T08:35:25;9.30;99.90
46590;DHT22;32313;48.722;9.362;2024-02-15T08:37:50;9.80;99.90
46590;DHT22;32313;48.722;9.362;2024-02-15T08:40:18;10.40;99.90
46590;DHT22;32313;48.722;9.362;2024-02-15T08:42:50;10.70;99.90
46590;DHT22;32313;48.722;9.362;2024-02-15T08:45:15;10.90;99.90
46590;DHT22;32313;48.722;9.362;2024-02-15T08:47:42;11.50;99.90
46590;DHT22;32313;48.722;9.362;2024-02-15T08:50:09;12.00;99.90
46590;DHT22;32313;48.722;9.362;2024-02-15T08:52:36;12.60;99.90
46590;DHT22;32313;48.722;9.362;2024-02-15T08:55:09;13.00;99.90
46590;DHT22;32313;48.722;9.362;2024-02-15T08:57:35;13.40;99.90
46590;DHT22;32313;48.722;9.362;2024-02-15T09:00:05;13.70;99.90
46590;DHT22;32313;48.722;9.362;2024-02-15T09:02:43;13.70;99.90
46590;DHT22;32313;48.722;9.362;2024-02-15T09:05:08;13.60;99.90
46590;DHT22;32313;48.722;9.362;2024-02-15T09:07:35;13.50;99.90
46590;DHT22;32313;48.722;9.362;2024-02-15T09:10:05;13.40;99.90
46590;DHT22;32313;48.722;9.362;2024-02-15T09:12:33;13.20;99.90
46590;DHT22;32313;48.722;9.362;2024-02-15T09:14:58;13.10;99.90
46590;DHT22;32313;48.722;9.362;2024-02-15T09:17:24;13.10;99.90
46590;DHT22;32313;48.722;9.362;2024-02-15T09:19:52;13.20;99.90
46590;DHT22;32313;48.722;9.362;2024-02-15T09:22:18;13.50;99.90
46590;DHT22;32313;48.722;9.362;2024-02-15T09:24:45;13.90;99.90
46590;DHT22;32313;48.722;9.362;2024-02-15T09:27:16;14.50;99.90
46590;DHT22;32313;48.722;9.362;2024-02-15T09:29:42;15.00;99.90
46590;DHT22;32313;48.722;9.362;2024-02-15T09:32:08;15.40;99.90
46590;DHT22;32313;48.722;9.362;2024-02-15T09:34:33;15.60;99.90
46590;DHT22;32313;48.722;9.362;2024-02-15T09:36:59;15.90;99.90
46590;DHT22;32313;48.722;9.362;2024-02-15T09:39:25;16.10;99.90
46590;DHT22;32313;48.722;9.362;2024-02-15T09:41:51;16.40;99.90
46590;DHT22;32313;48.722;9.362;2024-02-15T09:44:25;16.80;99.90
46590;DHT22;32313;48.722;9.362;2024-02-15T09:47:04;16.90;99.90
46590;DHT22;32313;48.722;9.362;2024-02-15T09:49:37;16.90;99.90
46590;DHT22;32313;48.722;9.362;2024-02-15T09:52:09;17.30;99.90
46590;DHT22;32313;48.722;9.362;2024-02-15T09:54:42;17.60;99.90
46590;DHT22;32313;48.722;9.362;2024-02-15T09:57:11;18.10;99.90
46590;DHT22;32313;48.722;9.362;2024-02-15T09:59:38;18.40;99.90
46590;DHT22;32313;48.722;9.362;2024-02-15T10:02:04;18.80;99.90
46590;DHT22;32313;48.722;9.362;2024-02-15T10:04:34;19.30;99.90
46590;DHT22;32313;48.722;9.362;2024-02-15T10:07:00;19.20;99.90
46590;DHT22;32313;48.722;9.362;2024-02-15T10:09:30;18.90;99.90
46590;DHT22;32313;48.722;9.362;2024-02-15T10:11:57;18.80;99.90
46590;DHT22;32313;48.722;9.362;2024-02-15T10:14:27;18.70;99.90
46590;DHT22;32313;48.722;9.362;2024-02-15T10:16:53;18.80;99.90
46590;DHT22;32313;48.722;9.362;2024-02-15T10:19:20;18.90;99.90
46590;DHT22;32313;48.722;9.362;2024-02-15T10:21:54;18.90;99.90
46590;DHT22;32313;48.722;9.362;2024-02-15T10:24:24;19.00;99.90
46590;DHT22;32313;48.722;9.362;2024-02-15T10:26:50;19.40;99.90
46590;DHT22;32313;48.722;9.362;2024-02-15T10:29:16;19.80;99.90
46590;DHT22;32313;48.722;9.362;2024-02-15T10:31:54;20.20;99.90
46590;DHT22;32313;48.722;9.362;2024-02-15T10:34:20;20.80;99.90
46590;DHT22;32313;48.722;9.362;2024-02-15T10:36:46;20.90;99.90
46590;DHT22;32313;48.722;9.362;2024-02-15T10:39:13;21.20;99.90
46590;DHT22;32313;48.722;9.362;2024-02-15T10:41:50;21.30;99.90
46590;DHT22;32313;48.722;9.362;2024-02-15T10:44:17;21.30;99.90
46590;DHT22;32313;48.722;9.362;2024-02-15T10:46:48;21.30;99.90
46590;DHT22;32313;48.722;9.362;2024-02-15T10:49:24;21.40;99.90
46590;DHT22;32313;48.722;9.362;2024-02-15T10:54:41;22.10;99.90
46590;DHT22;32313;48.722;9.362;2024-02-15T10:57:11;22.10;99.90
46590;DHT22;32313;48.722;9.362;2024-02-15T10:59:54;22.00;99.90
46590;DHT22;32313;48.722;9.362;2024-02-15T11:02:30;22.40;99.90
46590;DHT22;32313;48.722;9.362;2024-02-15T11:05:06;22.60;99.90
46590;DHT22;32313;48.722;9.362;2024-02-15T11:07:40;23.00;98.40
46590;DHT22;32313;48.722;9.362;2024-02-15T11:10:07;23.20;99.10
46590;DHT22;32313;48.722;9.362;2024-02-15T11:12:37;23.10;99.00
46590;DHT22;32313;48.722;9.362;2024-02-15T11:15:04;23.10;99.60
46590;DHT22;32313;48.722;9.362;2024-02-15T11:20:09;23.30;98.60
46590;DHT22;32313;48.722;9.362;2024-02-15T11:22:38;23.50;97.00
46590;DHT22;32313;48.722;9.362;2024-02-15T11:25:07;23.30;95.80
46590;DHT22;32313;48.722;9.362;2024-02-15T11:27:37;23.50;94.60
46590;DHT22;32313;48.722;9.362;2024-02-15T11:30:05;23.70;93.90
46590;DHT22;32313;48.722;9.362;2024-02-15T11:32:47;23.80;92.40
46590;DHT22;32313;48.722;9.362;2024-02-15T11:35:19;23.90;90.80
46590;DHT22;32313;48.722;9.362;2024-02-15T11:43:07;24.60;88.80
46590;DHT22;32313;48.722;9.362;2024-02-15T11:45:32;24.40;91.00
46590;DHT22;32313;48.722;9.362;2024-02-15T11:48:03;24.30;90.40
46590;DHT22;32313;48.722;9.362;2024-02-15T11:50:36;24.80;90.40
46590;DHT22;32313;48.722;9.362;2024-02-15T11:53:04;25.30;90.70
46590;DHT22;32313;48.722;9.362;2024-02-15T11:55:37;25.20;87.00
46590;DHT22;32313;48.722;9.362;2024-02-15T11:58:07;24.90;86.50
46590;DHT22;32313;48.722;9.362;2024-02-15T12:00:33;24.40;86.10
46590;DHT22;32313;48.722;9.362;2024-02-15T12:03:18;23.30;87.70
46590;DHT22;32313;48.722;9.362;2024-02-15T12:06:02;22.50;90.10
46590;DHT22;32313;48.722;9.362;2024-02-15T12:08:53;22.10;90.40
46590;DHT22;32313;48.722;9.362;2024-02-15T12:11:39;22.20;90.30
46590;DHT22;32313;48.722;9.362;2024-02-15T12:14:23;22.70;91.20
46590;DHT22;32313;48.722;9.362;2024-02-15T12:17:12;23.30;90.10
46590;DHT22;32313;48.722;9.362;2024-02-15T12:19:59;23.40;88.70
46590;DHT22;32313;48.722;9.362;2024-02-15T12:22:33;22.90;88.50
46590;DHT22;32313;48.722;9.362;2024-02-15T12:25:02;22.80;89.30
46590;DHT22;32313;48.722;9.362;2024-02-15T12:27:56;22.60;90.00
46590;DHT22;32313;48.722;9.362;2024-02-15T12:30:22;22.40;90.20
46590;DHT22;32313;48.722;9.362;2024-02-15T12:32:49;22.50;89.70
46590;DHT22;32313;48.722;9.362;2024-02-15T12:35:17;22.70;89.90
46590;DHT22;32313;48.722;9.362;2024-02-15T12:38:02;22.60;90.20
46590;DHT22;32313;48.722;9.362;2024-02-15T12:40:31;22.40;88.90
46590;DHT22;32313;48.722;9.362;2024-02-15T12:42:57;22.20;90.00
46590;DHT22;32313;48.722;9.362;2024-02-15T12:45:26;22.30;90.50
46590;DHT22;32313;48.722;9.362;2024-02-15T12:47:56;22.20;90.40
46590;DHT22;32313;48.722;9.362;2024-02-15T12:50:25;22.00;90.30
46590;DHT22;32313;48.722;9.362;2024-02-15T12:52:53;21.60;90.60
46590;DHT22;32313;48.722;9.362;2024-02-15T12:55:22;21.20;90.70
46590;DHT22;32313;48.722;9.362;2024-02-15T12:57:54;20.70;91.80
46590;DHT22;32313;48.722;9.362;2024-02-15T13:00:22;20.30;91.90
46590;DHT22;32313;48.722;9.362;2024-02-15T13:02:50;20.30;92.90
46590;DHT22;32313;48.722;9.362;2024-02-15T13:05:17;20.30;92.30
46590;DHT22;32313;48.722;9.362;2024-02-15T13:07:50;20.10;92.80
46590;DHT22;32313;48.722;9.362;2024-02-15T13:10:17;20.20;93.20
46590;DHT22;32313;48.722;9.362;2024-02-15T13:12:44;20.40;93.30
46590;DHT22;32313;48.722;9.362;2024-02-15T13:15:11;20.70;93.50
46590;DHT22;32313;48.722;9.362;2024-02-15T13:17:50;20.80;92.90
46590;DHT22;32313;48.722;9.362;2024-02-15T13:20:26;20.90;93.20
46590;DHT22;32313;48.722;9.362;2024-02-15T13:23:00;21.00;92.80
46590;DHT22;32313;48.722;9.362;2024-02-15T13:25:28;20.80;92.80
46590;DHT22;32313;48.722;9.362;2024-02-15T13:27:55;20.60;93.20
46590;DHT22;32313;48.722;9.362;2024-02-15T13:30:22;20.50;93.40
46590;DHT22;32313;48.722;9.362;2024-02-15T13:32:52;20.30;93.20
46590;DHT22;32313;48.722;9.362;2024-02-15T13:35:20;20.10;93.50
46590;DHT22;32313;48.722;9.362;2024-02-15T13:37:50;19.90;93.20
46590;DHT22;32313;48.722;9.362;2024-02-15T13:40:20;19.60;93.40
46590;DHT22;32313;48.722;9.362;2024-02-15T13:42:49;19.40;94.10
46590;DHT22;32313;48.722;9.362;2024-02-15T13:45:23;19.00;94.50
46590;DHT22;32313;48.722;9.362;2024-02-15T13:47:52;18.80;94.90
46590;DHT22;32313;48.722;9.362;2024-02-15T13:50:21;18.60;95.00
46590;DHT22;32313;48.722;9.362;2024-02-15T13:52:47;18.40;95.10
46590;DHT22;32313;48.722;9.362;2024-02-15T13:55:17;18.30;95.00
46590;DHT22;32313;48.722;9.362;2024-02-15T13:57:44;18.30;95.20
46590;DHT22;32313;48.722;9.362;2024-02-15T14:00:13;18.40;95.40
46590;DHT22;32313;48.722;9.362;2024-02-15T14:02:54;18.40;95.80
46590;DHT22;32313;48.722;9.362;2024-02-15T14:05:21;18.30;96.20
46590;DHT22;32313;48.722;9.362;2024-02-15T14:08:00;18.30;96.10
46590;DHT22;32313;48.722;9.362;2024-02-15T14:10:28;18.40;96.60
46590;DHT22;32313;48.722;9.362;2024-02-15T14:12:56;18.50;95.80
46590;DHT22;32313;48.722;9.362;2024-02-15T14:15:24;18.60;95.50
46590;DHT22;32313;48.722;9.362;2024-02-15T14:17:50;18.80;95.80
46590;DHT22;32313;48.722;9.362;2024-02-15T14:20:15;18.80;95.60
46590;DHT22;32313;48.722;9.362;2024-02-15T14:22:48;18.80;94.90
46590;DHT22;32313;48.722;9.362;2024-02-15T14:25:18;18.80;95.70
46590;DHT22;32313;48.722;9.362;2024-02-15T14:27:44;18.70;96.20
46590;DHT22;32313;48.722;9.362;2024-02-15T14:30:10;18.60;95.90
46590;DHT22;32313;48.722;9.362;2024-02-15T14:33:00;18.50;96.20
46590;DHT22;32313;48.722;9.362;2024-02-15T14:35:26;18.40;96.70
46590;DHT22;32313;48.722;9.362;2024-02-15T14:37:57;18.40;96.90
46590;DHT22;32313;48.722;9.362;2024-02-15T14:40:23;18.40;96.50
46590;DHT22;32313;48.722;9.362;2024-02-15T14:42:51;18.50;96.20
46590;DHT22;32313;48.722;9.362;2024-02-15T14:45:20;18.40;96.10
46590;DHT22;32313;48.722;9.362;2024-02-15T14:47:46;18.20;96.00
46590;DHT22;32313;48.722;9.362;2024-02-15T14:50:12;18.20;96.40
46590;DHT22;32313;48.722;9.362;2024-02-15T14:52:40;18.20;96.20
46590;DHT22;32313;48.722;9.362;2024-02-15T14:55:06;18.10;96.40
46590;DHT22;32313;48.722;9.362;2024-02-15T14:57:36;18.00;97.30
46590;DHT22;32313;48.722;9.362;2024-02-15T15:00:07;17.90;97.00
46590;DHT22;32313;48.722;9.362;2024-02-15T15:02:47;17.80;97.30
46590;DHT22;32313;48.722;9.362;2024-02-15T15:05:13;17.70;97.50
46590;DHT22;32313;48.722;9.362;2024-02-15T15:07:58;17.70;97.80
46590;DHT22;32313;48.722;9.362;2024-02-15T15:10:45;17.70;98.10
46590;DHT22;32313;48.722;9.362;2024-02-15T15:13:30;17.70;98.40
46590;DHT22;32313;48.722;9.362;2024-02-15T15:15:55;17.60;98.70
46590;DHT22;32313;48.722;9.362;2024-02-15T15:18:21;17.60;99.10
46590;DHT22;32313;48.722;9.362;2024-02-15T15:20:47;17.60;99.20
46590;DHT22;32313;48.722;9.362;2024-02-15T15:23:13;17.50;99.10
46590;DHT22;32313;48.722;9.362;2024-02-15T15:25:39;17.50;99.00
46590;DHT22;32313;48.722;9.362;2024-02-15T15:28:06;17.50;99.10
46590;DHT22;32313;48.722;9.362;2024-02-15T15:30:31;17.40;98.60
46590;DHT22;32313;48.722;9.362;2024-02-15T15:32:57;17.30;99.40
46590;DHT22;32313;48.722;9.362;2024-02-15T15:35:23;17.20;99.20
46590;DHT22;32313;48.722;9.362;2024-02-15T15:37:52;17.10;99.70
46590;DHT22;32313;48.722;9.362;2024-02-15T15:40:18;16.90;99.90
46590;DHT22;32313;48.722;9.362;2024-02-15T15:42:45;16.80;99.70
46590;DHT22;32313;48.722;9.362;2024-02-15T15:45:11;16.70;99.90
46590;DHT22;32313;48.722;9.362;2024-02-15T15:47:38;16.60;99.90
46590;DHT22;32313;48.722;9.362;2024-02-15T15:50:05;16.50;99.90
46590;DHT22;32313;48.722;9.362;2024-02-15T15:52:36;16.30;99.90
46590;DHT22;32313;48.722;9.362;2024-02-15T15:55:04;16.20;99.90
46590;DHT22;32313;48.722;9.362;2024-02-15T15:57:29;16.00;99.90
46590;DHT22;32313;48.722;9.362;2024-02-15T15:59:57;15.80;99.90